sensor_id;sensor_type;location;lat;lon;timestamp;P1;durP1;ratioP1;P2;durP2;ratioP2
27847;SDS011;15212;48.830;8.730;2023-04-03T00:01:21;5.97;;;2.67;;
27847;SDS011;15212;48.830;8.730;2023-04-03T00:03:49;10.03;;;3.30;;
27847;SDS011;15212;48.830;8.730;2023-04-03T00:06:17;9.65;;;3.30;;
27847;SDS011;15212;48.830;8.730;2023-04-03T00:08:46;4.35;;;2.70;;
27847;SDS011;15212;48.830;8.730;2023-04-03T00:11:15;4.60;;;3.02;;
27847;SDS011;15212;48.830;8.730;2023-04-03T00:13:44;6.00;;;3.10;;
27847;SDS011;15212;48.830;8.730;2023-04-03T00:16:12;6.53;;;2.72;;
27847;SDS011;15212;48.830;8.730;2023-04-03T00:18:41;4.15;;;2.60;;
27847;SDS011;15212;48.830;8.730;2023-04-03T00:21:10;5.40;;;2.80;;
27847;SDS011;15212;48.830;8.730;2023-04-03T00:23:41;26.85;;;9.78;;
27847;SDS011;15212;48.830;8.730;2023-04-03T00:26:09;84.95;;;23.35;;
27847;SDS011;15212;48.830;8.730;2023-04-03T00:28:38;53.33;;;15.68;;
27847;SDS011;15212;48.830;8.730;2023-04-03T00:31:06;24.98;;;8.78;;
27847;SDS011;15212;48.830;8.730;2023-04-03T00:33:35;57.05;;;16.05;;
27847;SDS011;15212;48.830;8.730;2023-04-03T00:36:07;36.53;;;11.60;;
27847;SDS011;15212;48.830;8.730;2023-04-03T00:38:37;14.07;;;6.15;;
27847;SDS011;15212;48.830;8.730;2023-04-03T00:41:06;10.08;;;6.92;;
27847;SDS011;15212;48.830;8.730;2023-04-03T00:43:35;8.13;;;4.00;;
27847;SDS011;15212;48.830;8.730;2023-04-03T00:46:04;8.40;;;3.60;;
27847;SDS011;15212;48.830;8.730;2023-04-03T00:48:33;6.12;;;3.33;;
27847;SDS011;15212;48.830;8.730;2023-04-03T00:51:09;7.90;;;3.00;;
27847;SDS011;15212;48.830;8.730;2023-04-03T00:53:49;6.90;;;3.30;;
27847;SDS011;15212;48.830;8.730;2023-04-03T00:56:17;8.85;;;3.37;;
27847;SDS011;15212;48.830;8.730;2023-04-03T00:58:49;6.42;;;3.17;;
27847;SDS011;15212;48.830;8.730;2023-04-03T01:01:22;5.20;;;2.90;;
27847;SDS011;15212;48.830;8.730;2023-04-03T01:03:53;6.22;;;3.45;;
27847;SDS011;15212;48.830;8.730;2023-04-03T01:06:30;5.95;;;3.10;;
27847;SDS011;15212;48.830;8.730;2023-04-03T01:08:58;5.72;;;2.83;;
27847;SDS011;15212;48.830;8.730;2023-04-03T01:11:27;6.60;;;3.12;;
27847;SDS011;15212;48.830;8.730;2023-04-03T01:13:56;9.05;;;3.12;;
27847;SDS011;15212;48.830;8.730;2023-04-03T01:16:24;7.92;;;3.22;;
27847;SDS011;15212;48.830;8.730;2023-04-03T01:18:54;4.87;;;3.40;;
27847;SDS011;15212;48.830;8.730;2023-04-03T01:21:29;4.72;;;3.25;;
27847;SDS011;15212;48.830;8.730;2023-04-03T01:27:07;7.62;;;3.10;;
27847;SDS011;15212;48.830;8.730;2023-04-03T01:29:37;5.22;;;2.83;;
27847;SDS011;15212;48.830;8.730;2023-04-03T01:32:07;5.00;;;2.98;;
27847;SDS011;15212;48.830;8.730;2023-04-03T01:34:35;8.55;;;3.37;;
27847;SDS011;15212;48.830;8.730;2023-04-03T01:37:04;6.30;;;2.90;;
27847;SDS011;15212;48.830;8.730;2023-04-03T01:39:32;4.35;;;3.10;;
27847;SDS011;15212;48.830;8.730;2023-04-03T01:42:01;5.78;;;3.40;;
27847;SDS011;15212;48.830;8.730;2023-04-03T01:44:30;5.78;;;2.83;;
27847;SDS011;15212;48.830;8.730;2023-04-03T01:46:58;5.72;;;2.90;;
27847;SDS011;15212;48.830;8.730;2023-04-03T01:49:26;6.45;;;3.20;;
27847;SDS011;15212;48.830;8.730;2023-04-03T01:51:55;5.33;;;2.87;;
27847;SDS011;15212;48.830;8.730;2023-04-03T01:54:23;6.28;;;2.80;;
27847;SDS011;15212;48.830;8.730;2023-04-03T01:56:52;7.70;;;3.00;;
27847;SDS011;15212;48.830;8.730;2023-04-03T01:59:20;6.80;;;3.02;;
27847;SDS011;15212;48.830;8.730;2023-04-03T02:01:48;4.45;;;2.92;;
27847;SDS011;15212;48.830;8.730;2023-04-03T02:04:17;5.62;;;3.02;;
27847;SDS011;15212;48.830;8.730;2023-04-03T02:06:45;5.92;;;3.00;;
27847;SDS011;15212;48.830;8.730;2023-04-03T02:09:14;7.72;;;3.30;;
27847;SDS011;15212;48.830;8.730;2023-04-03T02:11:42;7.05;;;3.27;;
27847;SDS011;15212;48.830;8.730;2023-04-03T02:14:11;5.70;;;2.67;;
27847;SDS011;15212;48.830;8.730;2023-04-03T02:16:39;5.05;;;3.02;;
27847;SDS011;15212;48.830;8.730;2023-04-03T02:19:07;8.93;;;3.40;;
27847;SDS011;15212;48.830;8.730;2023-04-03T02:21:36;8.20;;;2.87;;
27847;SDS011;15212;48.830;8.730;2023-04-03T02:24:04;4.75;;;3.22;;
27847;SDS011;15212;48.830;8.730;2023-04-03T02:26:33;4.37;;;2.80;;
27847;SDS011;15212;48.830;8.730;2023-04-03T02:29:01;6.12;;;3.35;;
27847;SDS011;15212;48.830;8.730;2023-04-03T02:31:29;7.25;;;3.12;;
27847;SDS011;15212;48.830;8.730;2023-04-03T02:33:58;6.47;;;3.25;;
27847;SDS011;15212;48.830;8.730;2023-04-03T02:36:26;6.25;;;2.85;;
27847;SDS011;15212;48.830;8.730;2023-04-03T02:38:54;3.65;;;2.67;;
27847;SDS011;15212;48.830;8.730;2023-04-03T02:41:23;7.85;;;3.08;;
27847;SDS011;15212;48.830;8.730;2023-04-03T02:43:53;6.85;;;2.83;;
27847;SDS011;15212;48.830;8.730;2023-04-03T02:46:21;6.10;;;2.92;;
27847;SDS011;15212;48.830;8.730;2023-04-03T02:48:50;11.12;;;4.33;;
27847;SDS011;15212;48.830;8.730;2023-04-03T02:51:18;6.70;;;3.35;;
27847;SDS011;15212;48.830;8.730;2023-04-03T02:53:46;25.90;;;9.00;;
27847;SDS011;15212;48.830;8.730;2023-04-03T02:56:16;5.87;;;3.55;;
27847;SDS011;15212;48.830;8.730;2023-04-03T02:58:45;10.10;;;3.27;;
27847;SDS011;15212;48.830;8.730;2023-04-03T03:01:14;7.05;;;3.25;;
27847;SDS011;15212;48.830;8.730;2023-04-03T03:03:42;9.75;;;3.70;;
27847;SDS011;15212;48.830;8.730;2023-04-03T03:06:12;9.08;;;3.47;;
27847;SDS011;15212;48.830;8.730;2023-04-03T03:08:43;6.08;;;3.35;;
27847;SDS011;15212;48.830;8.730;2023-04-03T03:11:11;7.62;;;3.20;;
27847;SDS011;15212;48.830;8.730;2023-04-03T03:13:40;7.95;;;3.60;;
27847;SDS011;15212;48.830;8.730;2023-04-03T03:16:08;5.85;;;3.00;;
27847;SDS011;15212;48.830;8.730;2023-04-03T03:18:37;5.92;;;3.35;;
27847;SDS011;15212;48.830;8.730;2023-04-03T03:21:05;7.67;;;2.95;;
27847;SDS011;15212;48.830;8.730;2023-04-03T03:23:34;8.85;;;3.47;;
27847;SDS011;15212;48.830;8.730;2023-04-03T03:26:06;7.60;;;3.15;;
27847;SDS011;15212;48.830;8.730;2023-04-03T03:28:37;5.08;;;3.22;;
27847;SDS011;15212;48.830;8.730;2023-04-03T03:31:07;9.13;;;3.40;;
27847;SDS011;15212;48.830;8.730;2023-04-03T03:33:36;6.53;;;3.50;;
27847;SDS011;15212;48.830;8.730;2023-04-03T03:36:05;5.22;;;3.30;;
27847;SDS011;15212;48.830;8.730;2023-04-03T03:38:33;5.95;;;3.58;;
27847;SDS011;15212;48.830;8.730;2023-04-03T03:41:02;6.78;;;3.27;;
27847;SDS011;15212;48.830;8.730;2023-04-03T03:43:30;5.62;;;3.37;;
27847;SDS011;15212;48.830;8.730;2023-04-03T03:45:58;6.28;;;3.30;;
27847;SDS011;15212;48.830;8.730;2023-04-03T03:48:27;4.60;;;3.10;;
27847;SDS011;15212;48.830;8.730;2023-04-03T03:50:55;4.75;;;3.25;;
27847;SDS011;15212;48.830;8.730;2023-04-03T03:53:24;8.55;;;3.92;;
27847;SDS011;15212;48.830;8.730;2023-04-03T03:55:52;6.92;;;3.77;;
27847;SDS011;15212;48.830;8.730;2023-04-03T03:58:21;6.28;;;3.92;;
27847;SDS011;15212;48.830;8.730;2023-04-03T04:00:49;8.03;;;3.70;;
27847;SDS011;15212;48.830;8.730;2023-04-03T04:03:18;5.37;;;3.37;;
27847;SDS011;15212;48.830;8.730;2023-04-03T04:05:46;9.30;;;4.03;;
27847;SDS011;15212;48.830;8.730;2023-04-03T04:08:15;5.50;;;3.27;;
27847;SDS011;15212;48.830;8.730;2023-04-03T04:10:43;7.12;;;3.50;;
27847;SDS011;15212;48.830;8.730;2023-04-03T04:13:12;5.17;;;3.25;;
27847;SDS011;15212;48.830;8.730;2023-04-03T04:15:40;6.58;;;3.42;;
27847;SDS011;15212;48.830;8.730;2023-04-03T04:18:10;5.15;;;3.37;;
27847;SDS011;15212;48.830;8.730;2023-04-03T04:20:38;7.08;;;3.10;;
27847;SDS011;15212;48.830;8.730;2023-04-03T04:23:06;7.08;;;3.50;;
27847;SDS011;15212;48.830;8.730;2023-04-03T04:25:35;8.60;;;4.30;;
27847;SDS011;15212;48.830;8.730;2023-04-03T04:28:03;9.15;;;3.65;;
27847;SDS011;15212;48.830;8.730;2023-04-03T04:30:32;9.83;;;3.77;;
27847;SDS011;15212;48.830;8.730;2023-04-03T04:33:00;8.03;;;3.20;;
27847;SDS011;15212;48.830;8.730;2023-04-03T04:35:28;8.15;;;3.72;;
27847;SDS011;15212;48.830;8.730;2023-04-03T04:37:57;7.90;;;3.90;;
27847;SDS011;15212;48.830;8.730;2023-04-03T04:40:26;7.33;;;3.25;;
27847;SDS011;15212;48.830;8.730;2023-04-03T04:42:54;7.45;;;4.37;;
27847;SDS011;15212;48.830;8.730;2023-04-03T04:45:23;6.90;;;3.98;;
27847;SDS011;15212;48.830;8.730;2023-04-03T04:47:51;5.83;;;3.30;;
27847;SDS011;15212;48.830;8.730;2023-04-03T04:50:24;5.37;;;3.50;;
27847;SDS011;15212;48.830;8.730;2023-04-03T04:52:52;5.60;;;3.90;;
27847;SDS011;15212;48.830;8.730;2023-04-03T04:55:20;4.95;;;3.90;;
27847;SDS011;15212;48.830;8.730;2023-04-03T04:57:49;7.28;;;3.62;;
27847;SDS011;15212;48.830;8.730;2023-04-03T05:00:17;5.55;;;3.20;;
27847;SDS011;15212;48.830;8.730;2023-04-03T05:02:46;4.60;;;3.25;;
27847;SDS011;15212;48.830;8.730;2023-04-03T05:05:14;4.05;;;3.00;;
27847;SDS011;15212;48.830;8.730;2023-04-03T05:07:43;6.20;;;3.70;;
27847;SDS011;15212;48.830;8.730;2023-04-03T05:10:11;9.00;;;3.47;;
27847;SDS011;15212;48.830;8.730;2023-04-03T05:12:40;7.12;;;3.62;;
27847;SDS011;15212;48.830;8.730;2023-04-03T05:17:56;9.73;;;3.90;;
27847;SDS011;15212;48.830;8.730;2023-04-03T05:20:24;5.85;;;3.98;;
27847;SDS011;15212;48.830;8.730;2023-04-03T05:22:52;25.30;;;9.03;;
27847;SDS011;15212;48.830;8.730;2023-04-03T05:25:21;12.03;;;4.55;;
27847;SDS011;15212;48.830;8.730;2023-04-03T05:27:49;6.80;;;3.58;;
27847;SDS011;15212;48.830;8.730;2023-04-03T05:30:18;7.78;;;4.20;;
27847;SDS011;15212;48.830;8.730;2023-04-03T05:32:46;5.45;;;2.95;;
27847;SDS011;15212;48.830;8.730;2023-04-03T05:35:15;5.42;;;3.02;;
27847;SDS011;15212;48.830;8.730;2023-04-03T05:37:43;3.92;;;2.37;;
27847;SDS011;15212;48.830;8.730;2023-04-03T05:40:12;8.75;;;3.20;;
27847;SDS011;15212;48.830;8.730;2023-04-03T05:42:40;4.08;;;3.42;;
27847;SDS011;15212;48.830;8.730;2023-04-03T05:45:08;5.75;;;3.12;;
27847;SDS011;15212;48.830;8.730;2023-04-03T05:47:37;5.47;;;3.42;;
27847;SDS011;15212;48.830;8.730;2023-04-03T05:50:05;3.95;;;2.80;;
27847;SDS011;15212;48.830;8.730;2023-04-03T05:52:38;6.92;;;2.98;;
27847;SDS011;15212;48.830;8.730;2023-04-03T05:55:09;4.87;;;3.00;;
27847;SDS011;15212;48.830;8.730;2023-04-03T05:57:38;5.85;;;2.90;;
27847;SDS011;15212;48.830;8.730;2023-04-03T06:00:07;7.15;;;3.20;;
27847;SDS011;15212;48.830;8.730;2023-04-03T06:02:40;6.35;;;2.83;;
27847;SDS011;15212;48.830;8.730;2023-04-03T06:05:09;6.62;;;3.30;;
27847;SDS011;15212;48.830;8.730;2023-04-03T06:07:38;9.85;;;3.20;;
27847;SDS011;15212;48.830;8.730;2023-04-03T06:10:07;6.12;;;3.58;;
27847;SDS011;15212;48.830;8.730;2023-04-03T06:12:37;6.47;;;3.02;;
27847;SDS011;15212;48.830;8.730;2023-04-03T06:15:06;7.08;;;3.17;;
27847;SDS011;15212;48.830;8.730;2023-04-03T06:17:36;7.97;;;3.72;;
27847;SDS011;15212;48.830;8.730;2023-04-03T06:20:05;7.67;;;3.33;;
27847;SDS011;15212;48.830;8.730;2023-04-03T06:22:35;7.42;;;3.00;;
27847;SDS011;15212;48.830;8.730;2023-04-03T06:25:03;7.47;;;3.35;;
27847;SDS011;15212;48.830;8.730;2023-04-03T06:27:32;6.83;;;4.00;;
27847;SDS011;15212;48.830;8.730;2023-04-03T06:30:01;8.73;;;4.15;;
27847;SDS011;15212;48.830;8.730;2023-04-03T06:32:29;11.80;;;4.40;;
27847;SDS011;15212;48.830;8.730;2023-04-03T06:34:58;6.70;;;3.90;;
27847;SDS011;15212;48.830;8.730;2023-04-03T06:37:26;6.15;;;3.30;;
27847;SDS011;15212;48.830;8.730;2023-04-03T06:39:56;9.63;;;4.97;;
27847;SDS011;15212;48.830;8.730;2023-04-03T06:42:26;9.08;;;4.35;;
27847;SDS011;15212;48.830;8.730;2023-04-03T06:44:54;6.87;;;3.25;;
27847;SDS011;15212;48.830;8.730;2023-04-03T06:47:23;6.90;;;2.95;;
27847;SDS011;15212;48.830;8.730;2023-04-03T06:49:51;9.33;;;4.58;;
27847;SDS011;15212;48.830;8.730;2023-04-03T06:52:19;8.53;;;4.05;;
27847;SDS011;15212;48.830;8.730;2023-04-03T06:54:48;6.42;;;3.52;;
27847;SDS011;15212;48.830;8.730;2023-04-03T06:57:18;4.87;;;3.12;;
27847;SDS011;15212;48.830;8.730;2023-04-03T06:59:46;4.10;;;2.67;;
27847;SDS011;15212;48.830;8.730;2023-04-03T07:02:15;4.92;;;2.90;;
27847;SDS011;15212;48.830;8.730;2023-04-03T07:04:44;4.50;;;3.05;;
27847;SDS011;15212;48.830;8.730;2023-04-03T07:07:13;6.55;;;2.98;;
27847;SDS011;15212;48.830;8.730;2023-04-03T07:09:43;6.10;;;2.77;;
27847;SDS011;15212;48.830;8.730;2023-04-03T07:12:13;6.50;;;2.95;;
27847;SDS011;15212;48.830;8.730;2023-04-03T07:14:41;5.60;;;2.80;;
27847;SDS011;15212;48.830;8.730;2023-04-03T07:17:10;7.55;;;2.72;;
27847;SDS011;15212;48.830;8.730;2023-04-03T07:19:38;7.55;;;2.83;;
27847;SDS011;15212;48.830;8.730;2023-04-03T07:22:07;3.98;;;2.55;;
27847;SDS011;15212;48.830;8.730;2023-04-03T07:24:36;5.87;;;3.08;;
27847;SDS011;15212;48.830;8.730;2023-04-03T07:27:05;5.65;;;3.10;;
27847;SDS011;15212;48.830;8.730;2023-04-03T07:29:34;6.17;;;2.90;;
27847;SDS011;15212;48.830;8.730;2023-04-03T07:32:03;6.75;;;2.75;;
27847;SDS011;15212;48.830;8.730;2023-04-03T07:34:32;8.85;;;2.75;;
27847;SDS011;15212;48.830;8.730;2023-04-03T07:37:01;7.33;;;2.77;;
27847;SDS011;15212;48.830;8.730;2023-04-03T07:39:30;3.87;;;2.40;;
27847;SDS011;15212;48.830;8.730;2023-04-03T07:41:59;5.05;;;3.00;;
27847;SDS011;15212;48.830;8.730;2023-04-03T07:44:28;8.73;;;3.40;;
27847;SDS011;15212;48.830;8.730;2023-04-03T07:46:56;4.72;;;2.80;;
27847;SDS011;15212;48.830;8.730;2023-04-03T07:49:25;12.43;;;5.05;;
27847;SDS011;15212;48.830;8.730;2023-04-03T07:51:54;8.80;;;3.27;;
27847;SDS011;15212;48.830;8.730;2023-04-03T07:54:22;26.30;;;8.15;;
27847;SDS011;15212;48.830;8.730;2023-04-03T07:56:51;24.77;;;7.42;;
27847;SDS011;15212;48.830;8.730;2023-04-03T07:59:19;9.65;;;4.20;;
27847;SDS011;15212;48.830;8.730;2023-04-03T08:01:48;6.25;;;3.00;;
27847;SDS011;15212;48.830;8.730;2023-04-03T08:04:16;34.33;;;9.93;;
27847;SDS011;15212;48.830;8.730;2023-04-03T08:06:44;18.55;;;5.92;;
27847;SDS011;15212;48.830;8.730;2023-04-03T08:09:14;14.70;;;5.30;;
27847;SDS011;15212;48.830;8.730;2023-04-03T08:11:43;43.55;;;12.35;;
27847;SDS011;15212;48.830;8.730;2023-04-03T08:14:12;10.95;;;4.45;;
27847;SDS011;15212;48.830;8.730;2023-04-03T08:16:45;16.23;;;5.47;;
27847;SDS011;15212;48.830;8.730;2023-04-03T08:19:15;30.50;;;8.38;;
27847;SDS011;15212;48.830;8.730;2023-04-03T08:21:44;13.80;;;4.90;;
27847;SDS011;15212;48.830;8.730;2023-04-03T08:24:12;10.90;;;3.95;;
27847;SDS011;15212;48.830;8.730;2023-04-03T08:26:41;14.35;;;4.53;;
27847;SDS011;15212;48.830;8.730;2023-04-03T08:29:09;15.95;;;5.53;;
27847;SDS011;15212;48.830;8.730;2023-04-03T08:31:37;8.90;;;3.58;;
27847;SDS011;15212;48.830;8.730;2023-04-03T08:34:06;7.15;;;3.40;;
27847;SDS011;15212;48.830;8.730;2023-04-03T08:36:34;9.53;;;5.22;;
27847;SDS011;15212;48.830;8.730;2023-04-03T08:39:02;7.83;;;3.62;;
27847;SDS011;15212;48.830;8.730;2023-04-03T08:41:35;5.65;;;3.30;;
27847;SDS011;15212;48.830;8.730;2023-04-03T08:44:24;12.40;;;3.47;;
27847;SDS011;15212;48.830;8.730;2023-04-03T08:47:40;5.15;;;2.95;;
27847;SDS011;15212;48.830;8.730;2023-04-03T08:50:12;7.78;;;3.08;;
27847;SDS011;15212;48.830;8.730;2023-04-03T08:52:44;4.95;;;2.80;;
27847;SDS011;15212;48.830;8.730;2023-04-03T08:55:23;6.22;;;2.83;;
27847;SDS011;15212;48.830;8.730;2023-04-03T08:58:09;5.95;;;3.30;;
27847;SDS011;15212;48.830;8.730;2023-04-03T09:00:47;7.10;;;3.20;;
27847;SDS011;15212;48.830;8.730;2023-04-03T09:03:31;4.62;;;2.87;;
27847;SDS011;15212;48.830;8.730;2023-04-03T09:08:43;7.40;;;3.02;;
27847;SDS011;15212;48.830;8.730;2023-04-03T09:17:37;5.00;;;2.92;;
27847;SDS011;15212;48.830;8.730;2023-04-03T09:20:41;8.63;;;3.27;;
27847;SDS011;15212;48.830;8.730;2023-04-03T09:23:32;7.45;;;3.17;;
27847;SDS011;15212;48.830;8.730;2023-04-03T09:26:05;7.58;;;3.20;;
27847;SDS011;15212;48.830;8.730;2023-04-03T09:28:37;5.40;;;2.90;;
27847;SDS011;15212;48.830;8.730;2023-04-03T09:31:21;6.33;;;3.10;;
27847;SDS011;15212;48.830;8.730;2023-04-03T09:33:53;6.20;;;3.55;;
27847;SDS011;15212;48.830;8.730;2023-04-03T09:36:48;6.40;;;3.60;;
27847;SDS011;15212;48.830;8.730;2023-04-03T09:39:24;7.75;;;3.70;;
27847;SDS011;15212;48.830;8.730;2023-04-03T09:44:35;8.10;;;3.92;;
27847;SDS011;15212;48.830;8.730;2023-04-03T09:47:39;4.20;;;2.45;;
27847;SDS011;15212;48.830;8.730;2023-04-03T09:52:50;6.08;;;2.65;;
27847;SDS011;15212;48.830;8.730;2023-04-03T09:55:24;4.70;;;2.60;;
27847;SDS011;15212;48.830;8.730;2023-04-03T09:58:02;4.10;;;2.47;;
27847;SDS011;15212;48.830;8.730;2023-04-03T10:00:35;5.83;;;2.60;;
27847;SDS011;15212;48.830;8.730;2023-04-03T10:03:05;9.40;;;3.02;;
27847;SDS011;15212;48.830;8.730;2023-04-03T10:05:53;7.30;;;2.45;;
27847;SDS011;15212;48.830;8.730;2023-04-03T10:08:30;8.18;;;2.85;;
27847;SDS011;15212;48.830;8.730;2023-04-03T10:11:13;6.85;;;2.80;;
27847;SDS011;15212;48.830;8.730;2023-04-03T10:13:49;4.35;;;2.67;;
27847;SDS011;15212;48.830;8.730;2023-04-03T10:16:25;8.15;;;3.17;;
27847;SDS011;15212;48.830;8.730;2023-04-03T10:22:01;5.10;;;2.83;;
27847;SDS011;15212;48.830;8.730;2023-04-03T10:24:48;8.40;;;3.02;;
27847;SDS011;15212;48.830;8.730;2023-04-03T10:42:18;8.70;;;2.33;;
27847;SDS011;15212;48.830;8.730;2023-04-03T10:50:58;3.58;;;2.20;;
27847;SDS011;15212;48.830;8.730;2023-04-03T10:59:13;6.17;;;3.22;;
27847;SDS011;15212;48.830;8.730;2023-04-03T11:02:22;5.72;;;2.47;;
27847;SDS011;15212;48.830;8.730;2023-04-03T11:05:07;6.30;;;2.90;;
27847;SDS011;15212;48.830;8.730;2023-04-03T11:07:56;7.35;;;2.65;;
27847;SDS011;15212;48.830;8.730;2023-04-03T11:10:40;8.40;;;2.58;;
27847;SDS011;15212;48.830;8.730;2023-04-03T11:13:21;6.53;;;2.20;;
27847;SDS011;15212;48.830;8.730;2023-04-03T11:15:52;6.05;;;2.47;;
27847;SDS011;15212;48.830;8.730;2023-04-03T11:18:27;6.03;;;2.75;;
27847;SDS011;15212;48.830;8.730;2023-04-03T11:21:05;6.60;;;2.62;;
27847;SDS011;15212;48.830;8.730;2023-04-03T11:23:48;6.37;;;2.60;;
27847;SDS011;15212;48.830;8.730;2023-04-03T11:26:21;5.10;;;2.35;;
27847;SDS011;15212;48.830;8.730;2023-04-03T11:28:55;6.35;;;2.15;;
27847;SDS011;15212;48.830;8.730;2023-04-03T11:31:38;4.22;;;2.05;;
27847;SDS011;15212;48.830;8.730;2023-04-03T11:37:28;6.00;;;2.55;;
27847;SDS011;15212;48.830;8.730;2023-04-03T11:40:02;4.80;;;2.40;;
27847;SDS011;15212;48.830;8.730;2023-04-03T11:45:55;4.22;;;2.20;;
27847;SDS011;15212;48.830;8.730;2023-04-03T11:53:47;4.03;;;2.25;;
27847;SDS011;15212;48.830;8.730;2023-04-03T12:01:47;5.33;;;1.92;;
27847;SDS011;15212;48.830;8.730;2023-04-03T12:04:21;4.03;;;2.35;;
27847;SDS011;15212;48.830;8.730;2023-04-03T12:07:00;3.62;;;1.90;;
27847;SDS011;15212;48.830;8.730;2023-04-03T12:09:56;3.85;;;2.02;;
27847;SDS011;15212;48.830;8.730;2023-04-03T12:12:24;7.30;;;2.33;;
27847;SDS011;15212;48.830;8.730;2023-04-03T12:15:21;5.15;;;2.00;;
27847;SDS011;15212;48.830;8.730;2023-04-03T12:17:52;6.15;;;2.87;;
27847;SDS011;15212;48.830;8.730;2023-04-03T12:20:45;5.33;;;2.60;;
27847;SDS011;15212;48.830;8.730;2023-04-03T12:26:18;3.60;;;2.05;;
27847;SDS011;15212;48.830;8.730;2023-04-03T12:28:51;4.40;;;2.10;;
27847;SDS011;15212;48.830;8.730;2023-04-03T12:31:22;6.87;;;2.22;;
27847;SDS011;15212;48.830;8.730;2023-04-03T12:33:59;3.37;;;2.30;;
27847;SDS011;15212;48.830;8.730;2023-04-03T12:42:18;7.03;;;2.30;;
27847;SDS011;15212;48.830;8.730;2023-04-03T12:45:21;12.20;;;4.55;;
27847;SDS011;15212;48.830;8.730;2023-04-03T12:47:53;6.20;;;2.35;;
27847;SDS011;15212;48.830;8.730;2023-04-03T12:50:24;5.20;;;2.08;;
27847;SDS011;15212;48.830;8.730;2023-04-03T12:53:01;3.22;;;1.95;;
27847;SDS011;15212;48.830;8.730;2023-04-03T12:55:56;5.17;;;2.30;;
27847;SDS011;15212;48.830;8.730;2023-04-03T12:58:28;3.25;;;2.12;;
27847;SDS011;15212;48.830;8.730;2023-04-03T13:01:04;7.20;;;2.67;;
27847;SDS011;15212;48.830;8.730;2023-04-03T13:03:44;6.78;;;2.00;;
27847;SDS011;15212;48.830;8.730;2023-04-03T13:06:22;4.33;;;1.80;;
27847;SDS011;15212;48.830;8.730;2023-04-03T13:08:58;3.98;;;2.15;;
27847;SDS011;15212;48.830;8.730;2023-04-03T13:11:32;4.87;;;2.10;;
27847;SDS011;15212;48.830;8.730;2023-04-03T13:14:14;8.63;;;2.27;;
27847;SDS011;15212;48.830;8.730;2023-04-03T13:16:57;6.25;;;2.22;;
27847;SDS011;15212;48.830;8.730;2023-04-03T13:19:32;4.95;;;2.00;;
27847;SDS011;15212;48.830;8.730;2023-04-03T13:22:06;6.72;;;2.17;;
27847;SDS011;15212;48.830;8.730;2023-04-03T13:24:34;3.62;;;1.92;;
27847;SDS011;15212;48.830;8.730;2023-04-03T13:27:05;6.05;;;2.25;;
27847;SDS011;15212;48.830;8.730;2023-04-03T13:29:38;4.30;;;1.82;;
27847;SDS011;15212;48.830;8.730;2023-04-03T13:32:06;4.17;;;1.77;;
27847;SDS011;15212;48.830;8.730;2023-04-03T13:34:40;4.50;;;1.95;;
27847;SDS011;15212;48.830;8.730;2023-04-03T13:37:21;4.95;;;2.37;;
27847;SDS011;15212;48.830;8.730;2023-04-03T13:42:40;3.55;;;2.00;;
27847;SDS011;15212;48.830;8.730;2023-04-03T13:48:10;4.80;;;2.00;;
27847;SDS011;15212;48.830;8.730;2023-04-03T13:50:50;4.72;;;2.00;;
27847;SDS011;15212;48.830;8.730;2023-04-03T13:53:27;5.33;;;2.00;;
27847;SDS011;15212;48.830;8.730;2023-04-03T13:56:13;9.83;;;2.17;;
27847;SDS011;15212;48.830;8.730;2023-04-03T13:58:34;5.22;;;2.00;;
27847;SDS011;15212;48.830;8.730;2023-04-03T14:04:00;4.80;;;2.72;;
27847;SDS011;15212;48.830;8.730;2023-04-03T14:06:32;3.30;;;2.00;;
27847;SDS011;15212;48.830;8.730;2023-04-03T14:09:01;6.25;;;2.05;;
27847;SDS011;15212;48.830;8.730;2023-04-03T14:11:29;5.90;;;1.92;;
27847;SDS011;15212;48.830;8.730;2023-04-03T14:14:00;5.53;;;1.98;;
27847;SDS011;15212;48.830;8.730;2023-04-03T14:16:32;6.28;;;1.95;;
27847;SDS011;15212;48.830;8.730;2023-04-03T14:19:04;5.17;;;2.42;;
27847;SDS011;15212;48.830;8.730;2023-04-03T14:21:33;3.77;;;2.02;;
27847;SDS011;15212;48.830;8.730;2023-04-03T14:24:01;3.95;;;1.90;;
27847;SDS011;15212;48.830;8.730;2023-04-03T14:26:30;6.85;;;2.52;;
27847;SDS011;15212;48.830;8.730;2023-04-03T14:28:58;3.17;;;2.00;;
27847;SDS011;15212;48.830;8.730;2023-04-03T14:31:27;4.90;;;2.02;;
27847;SDS011;15212;48.830;8.730;2023-04-03T14:33:56;6.97;;;2.10;;
27847;SDS011;15212;48.830;8.730;2023-04-03T14:36:25;5.10;;;2.10;;
27847;SDS011;15212;48.830;8.730;2023-04-03T14:38:56;5.75;;;2.35;;
27847;SDS011;15212;48.830;8.730;2023-04-03T14:41:26;4.25;;;2.08;;
27847;SDS011;15212;48.830;8.730;2023-04-03T14:43:55;3.87;;;1.62;;
27847;SDS011;15212;48.830;8.730;2023-04-03T14:46:26;4.90;;;1.82;;
27847;SDS011;15212;48.830;8.730;2023-04-03T14:49:24;7.97;;;2.95;;
27847;SDS011;15212;48.830;8.730;2023-04-03T14:51:55;5.50;;;1.77;;
27847;SDS011;15212;48.830;8.730;2023-04-03T14:54:25;4.45;;;2.50;;
27847;SDS011;15212;48.830;8.730;2023-04-03T14:56:55;3.40;;;1.70;;
27847;SDS011;15212;48.830;8.730;2023-04-03T14:59:26;3.72;;;1.95;;
27847;SDS011;15212;48.830;8.730;2023-04-03T15:01:56;7.50;;;1.92;;
27847;SDS011;15212;48.830;8.730;2023-04-03T15:04:24;5.12;;;2.08;;
27847;SDS011;15212;48.830;8.730;2023-04-03T15:06:53;3.52;;;1.98;;
27847;SDS011;15212;48.830;8.730;2023-04-03T15:09:25;3.77;;;2.35;;
27847;SDS011;15212;48.830;8.730;2023-04-03T15:11:55;6.33;;;2.58;;
27847;SDS011;15212;48.830;8.730;2023-04-03T15:14:23;3.30;;;2.00;;
27847;SDS011;15212;48.830;8.730;2023-04-03T15:16:52;11.83;;;2.87;;
27847;SDS011;15212;48.830;8.730;2023-04-03T15:19:20;6.58;;;3.02;;
27847;SDS011;15212;48.830;8.730;2023-04-03T15:21:50;4.80;;;2.12;;
27847;SDS011;15212;48.830;8.730;2023-04-03T15:24:18;2.77;;;2.00;;
27847;SDS011;15212;48.830;8.730;2023-04-03T15:26:46;6.58;;;2.30;;
27847;SDS011;15212;48.830;8.730;2023-04-03T15:29:15;5.37;;;1.90;;
27847;SDS011;15212;48.830;8.730;2023-04-03T15:31:43;4.75;;;1.90;;
27847;SDS011;15212;48.830;8.730;2023-04-03T15:34:11;4.25;;;2.55;;
27847;SDS011;15212;48.830;8.730;2023-04-03T15:36:40;4.47;;;2.45;;
27847;SDS011;15212;48.830;8.730;2023-04-03T15:39:08;5.42;;;2.42;;
27847;SDS011;15212;48.830;8.730;2023-04-03T15:41:36;6.72;;;2.62;;
27847;SDS011;15212;48.830;8.730;2023-04-03T15:44:05;6.10;;;2.25;;
27847;SDS011;15212;48.830;8.730;2023-04-03T15:46:34;6.10;;;2.20;;
27847;SDS011;15212;48.830;8.730;2023-04-03T15:49:03;4.42;;;2.47;;
27847;SDS011;15212;48.830;8.730;2023-04-03T15:51:32;6.35;;;2.20;;
27847;SDS011;15212;48.830;8.730;2023-04-03T15:54:00;5.28;;;2.95;;
27847;SDS011;15212;48.830;8.730;2023-04-03T15:56:28;7.92;;;3.10;;
27847;SDS011;15212;48.830;8.730;2023-04-03T15:58:57;6.00;;;2.42;;
27847;SDS011;15212;48.830;8.730;2023-04-03T16:01:25;5.90;;;2.20;;
27847;SDS011;15212;48.830;8.730;2023-04-03T16:03:54;3.02;;;1.80;;
27847;SDS011;15212;48.830;8.730;2023-04-03T16:06:22;5.22;;;2.98;;
27847;SDS011;15212;48.830;8.730;2023-04-03T16:08:54;5.65;;;2.22;;
27847;SDS011;15212;48.830;8.730;2023-04-03T16:11:24;7.12;;;2.08;;
27847;SDS011;15212;48.830;8.730;2023-04-03T16:13:53;4.83;;;3.02;;
27847;SDS011;15212;48.830;8.730;2023-04-03T16:16:23;4.15;;;2.33;;
27847;SDS011;15212;48.830;8.730;2023-04-03T16:18:53;6.60;;;2.17;;
27847;SDS011;15212;48.830;8.730;2023-04-03T16:21:23;4.95;;;2.30;;
27847;SDS011;15212;48.830;8.730;2023-04-03T16:23:52;7.97;;;3.60;;
27847;SDS011;15212;48.830;8.730;2023-04-03T16:26:20;6.58;;;4.87;;
27847;SDS011;15212;48.830;8.730;2023-04-03T16:28:48;5.25;;;2.80;;
27847;SDS011;15212;48.830;8.730;2023-04-03T16:31:17;6.45;;;3.15;;
27847;SDS011;15212;48.830;8.730;2023-04-03T16:33:45;5.70;;;3.10;;
27847;SDS011;15212;48.830;8.730;2023-04-03T16:36:14;7.00;;;3.05;;